sensor_id;sensor_type;location;lat;lon;timestamp;P1;durP1;ratioP1;P2;durP2;ratioP2
54637;SDS011;40534;54.874;23.798;2023-12-20T00:01:54;2.80;;;1.90;;
54637;SDS011;40534;54.874;23.798;2023-12-20T00:04:35;4.00;;;2.70;;
54637;SDS011;40534;54.874;23.798;2023-12-20T00:07:11;3.00;;;2.30;;
54637;SDS011;40534;54.874;23.798;2023-12-20T00:09:56;3.00;;;2.60;;
54637;SDS011;40534;54.874;23.798;2023-12-20T00:12:45;2.60;;;2.20;;
54637;SDS011;40534;54.874;23.798;2023-12-20T00:15:44;2.30;;;2.10;;
54637;SDS011;40534;54.874;23.798;2023-12-20T00:18:41;2.70;;;2.00;;
54637;SDS011;40534;54.874;23.798;2023-12-20T00:21:38;2.60;;;2.10;;
54637;SDS011;40534;54.874;23.798;2023-12-20T00:24:28;1.80;;;1.70;;
54637;SDS011;40534;54.874;23.798;2023-12-20T00:27:19;2.20;;;1.90;;
54637;SDS011;40534;54.874;23.798;2023-12-20T00:30:10;1.90;;;1.80;;
54637;SDS011;40534;54.874;23.798;2023-12-20T00:33:04;2.50;;;2.30;;
54637;SDS011;40534;54.874;23.798;2023-12-20T00:35:50;2.20;;;2.00;;
54637;SDS011;40534;54.874;23.798;2023-12-20T00:38:43;2.70;;;2.50;;
54637;SDS011;40534;54.874;23.798;2023-12-20T00:41:33;2.40;;;2.20;;
54637;SDS011;40534;54.874;23.798;2023-12-20T00:47:42;2.60;;;2.30;;
54637;SDS011;40534;54.874;23.798;2023-12-20T00:54:01;2.40;;;2.20;;
54637;SDS011;40534;54.874;23.798;2023-12-20T00:57:10;3.00;;;2.70;;
54637;SDS011;40534;54.874;23.798;2023-12-20T01:00:22;3.20;;;2.80;;
54637;SDS011;40534;54.874;23.798;2023-12-20T01:03:14;2.90;;;2.60;;
54637;SDS011;40534;54.874;23.798;2023-12-20T01:06:33;3.40;;;2.30;;
54637;SDS011;40534;54.874;23.798;2023-12-20T01:09:29;3.70;;;2.70;;
54637;SDS011;40534;54.874;23.798;2023-12-20T01:12:22;2.90;;;2.60;;
54637;SDS011;40534;54.874;23.798;2023-12-20T01:15:03;3.40;;;2.60;;
54637;SDS011;40534;54.874;23.798;2023-12-20T01:17:58;3.00;;;2.60;;
54637;SDS011;40534;54.874;23.798;2023-12-20T01:21:13;3.10;;;2.80;;
54637;SDS011;40534;54.874;23.798;2023-12-20T01:28:00;2.90;;;2.60;;
54637;SDS011;40534;54.874;23.798;2023-12-20T01:31:33;4.00;;;2.60;;
54637;SDS011;40534;54.874;23.798;2023-12-20T01:34:08;3.60;;;2.70;;
54637;SDS011;40534;54.874;23.798;2023-12-20T01:36:57;3.30;;;2.50;;
54637;SDS011;40534;54.874;23.798;2023-12-20T01:39:50;3.10;;;2.80;;
54637;SDS011;40534;54.874;23.798;2023-12-20T01:45:53;4.90;;;2.90;;
54637;SDS011;40534;54.874;23.798;2023-12-20T01:49:44;2.80;;;2.50;;
54637;SDS011;40534;54.874;23.798;2023-12-20T01:52:37;2.60;;;2.40;;
54637;SDS011;40534;54.874;23.798;2023-12-20T01:55:29;2.40;;;2.20;;
54637;SDS011;40534;54.874;23.798;2023-12-20T02:01:45;1.20;;;1.10;;
54637;SDS011;40534;54.874;23.798;2023-12-20T02:08:02;0.70;;;0.40;;
54637;SDS011;40534;54.874;23.798;2023-12-20T02:11:05;0.30;;;0.30;;
54637;SDS011;40534;54.874;23.798;2023-12-20T02:14:13;0.30;;;0.30;;
54637;SDS011;40534;54.874;23.798;2023-12-20T02:17:18;0.10;;;0.10;;
54637;SDS011;40534;54.874;23.798;2023-12-20T02:23:25;0.10;;;0.10;;
54637;SDS011;40534;54.874;23.798;2023-12-20T02:26:26;0.60;;;0.20;;
54637;SDS011;40534;54.874;23.798;2023-12-20T02:29:23;0.40;;;0.20;;
54637;SDS011;40534;54.874;23.798;2023-12-20T02:32:14;0.80;;;0.20;;
54637;SDS011;40534;54.874;23.798;2023-12-20T02:35:39;0.10;;;0.10;;
54637;SDS011;40534;54.874;23.798;2023-12-20T02:39:02;0.10;;;0.10;;
54637;SDS011;40534;54.874;23.798;2023-12-20T02:42:00;0.60;;;0.30;;
54637;SDS011;40534;54.874;23.798;2023-12-20T02:45:21;0.40;;;0.30;;
54637;SDS011;40534;54.874;23.798;2023-12-20T02:58:53;2.10;;;0.30;;
54637;SDS011;40534;54.874;23.798;2023-12-20T03:01:49;0.20;;;0.20;;
54637;SDS011;40534;54.874;23.798;2023-12-20T03:04:55;2.00;;;0.40;;
54637;SDS011;40534;54.874;23.798;2023-12-20T03:07:42;0.80;;;0.30;;
54637;SDS011;40534;54.874;23.798;2023-12-20T03:10:34;1.40;;;0.20;;
54637;SDS011;40534;54.874;23.798;2023-12-20T03:13:36;0.20;;;0.20;;
54637;SDS011;40534;54.874;23.798;2023-12-20T03:16:29;2.40;;;0.30;;
54637;SDS011;40534;54.874;23.798;2023-12-20T03:19:17;1.20;;;0.40;;
54637;SDS011;40534;54.874;23.798;2023-12-20T03:25:17;0.80;;;0.40;;
54637;SDS011;40534;54.874;23.798;2023-12-20T03:27:59;1.20;;;0.20;;
54637;SDS011;40534;54.874;23.798;2023-12-20T03:30:59;0.60;;;0.20;;
54637;SDS011;40534;54.874;23.798;2023-12-20T03:33:51;1.30;;;0.20;;
54637;SDS011;40534;54.874;23.798;2023-12-20T03:37:03;1.90;;;0.40;;
54637;SDS011;40534;54.874;23.798;2023-12-20T03:43:01;0.60;;;0.30;;
54637;SDS011;40534;54.874;23.798;2023-12-20T03:46:03;0.50;;;0.30;;
54637;SDS011;40534;54.874;23.798;2023-12-20T03:49:09;0.70;;;0.20;;
54637;SDS011;40534;54.874;23.798;2023-12-20T03:51:57;3.50;;;0.50;;
54637;SDS011;40534;54.874;23.798;2023-12-20T03:55:05;0.50;;;0.20;;
54637;SDS011;40534;54.874;23.798;2023-12-20T03:57:52;1.00;;;0.30;;
54637;SDS011;40534;54.874;23.798;2023-12-20T04:00:42;1.30;;;0.70;;
54637;SDS011;40534;54.874;23.798;2023-12-20T04:03:42;0.40;;;0.20;;
54637;SDS011;40534;54.874;23.798;2023-12-20T04:06:45;2.30;;;0.30;;
54637;SDS011;40534;54.874;23.798;2023-12-20T04:09:32;1.10;;;0.50;;
54637;SDS011;40534;54.874;23.798;2023-12-20T04:12:16;0.20;;;0.20;;
54637;SDS011;40534;54.874;23.798;2023-12-20T04:15:07;0.50;;;0.30;;
54637;SDS011;40534;54.874;23.798;2023-12-20T04:18:06;4.70;;;0.60;;
54637;SDS011;40534;54.874;23.798;2023-12-20T04:20:51;2.10;;;0.40;;
54637;SDS011;40534;54.874;23.798;2023-12-20T04:23:32;0.40;;;0.30;;
54637;SDS011;40534;54.874;23.798;2023-12-20T04:26:40;2.40;;;0.70;;
54637;SDS011;40534;54.874;23.798;2023-12-20T04:29:44;0.90;;;0.50;;
54637;SDS011;40534;54.874;23.798;2023-12-20T04:32:51;0.70;;;0.40;;
54637;SDS011;40534;54.874;23.798;2023-12-20T04:35:47;1.00;;;0.30;;
54637;SDS011;40534;54.874;23.798;2023-12-20T04:46:58;3.50;;;1.50;;
54637;SDS011;40534;54.874;23.798;2023-12-20T04:50:22;2.50;;;1.00;;
54637;SDS011;40534;54.874;23.798;2023-12-20T04:53:02;1.00;;;0.60;;
54637;SDS011;40534;54.874;23.798;2023-12-20T05:01:51;3.80;;;1.00;;
54637;SDS011;40534;54.874;23.798;2023-12-20T05:04:34;1.80;;;0.50;;
54637;SDS011;40534;54.874;23.798;2023-12-20T05:07:30;1.80;;;0.60;;
54637;SDS011;40534;54.874;23.798;2023-12-20T05:10:44;3.90;;;0.70;;
54637;SDS011;40534;54.874;23.798;2023-12-20T05:13:39;3.30;;;0.60;;
54637;SDS011;40534;54.874;23.798;2023-12-20T05:16:36;3.10;;;0.50;;
54637;SDS011;40534;54.874;23.798;2023-12-20T05:19:29;0.50;;;0.20;;
54637;SDS011;40534;54.874;23.798;2023-12-20T05:22:38;1.50;;;0.60;;
54637;SDS011;40534;54.874;23.798;2023-12-20T05:25:31;3.10;;;0.60;;
54637;SDS011;40534;54.874;23.798;2023-12-20T05:31:11;3.30;;;0.60;;
54637;SDS011;40534;54.874;23.798;2023-12-20T05:35:10;2.70;;;0.60;;
54637;SDS011;40534;54.874;23.798;2023-12-20T05:38:10;1.70;;;0.40;;
54637;SDS011;40534;54.874;23.798;2023-12-20T05:40:43;1.00;;;0.40;;
54637;SDS011;40534;54.874;23.798;2023-12-20T05:43:25;0.20;;;0.20;;
54637;SDS011;40534;54.874;23.798;2023-12-20T05:46:11;2.30;;;0.40;;
54637;SDS011;40534;54.874;23.798;2023-12-20T05:48:59;3.50;;;0.40;;
54637;SDS011;40534;54.874;23.798;2023-12-20T05:51:51;1.00;;;0.20;;
54637;SDS011;40534;54.874;23.798;2023-12-20T05:55:10;0.30;;;0.30;;
54637;SDS011;40534;54.874;23.798;2023-12-20T05:58:39;1.90;;;0.40;;
54637;SDS011;40534;54.874;23.798;2023-12-20T06:06:10;0.90;;;0.30;;
54637;SDS011;40534;54.874;23.798;2023-12-20T06:08:52;1.30;;;0.50;;
54637;SDS011;40534;54.874;23.798;2023-12-20T06:11:48;1.10;;;0.60;;
54637;SDS011;40534;54.874;23.798;2023-12-20T06:18:01;4.60;;;0.50;;
54637;SDS011;40534;54.874;23.798;2023-12-20T06:20:52;5.90;;;0.50;;
54637;SDS011;40534;54.874;23.798;2023-12-20T06:23:42;1.90;;;0.50;;
54637;SDS011;40534;54.874;23.798;2023-12-20T06:26:38;1.20;;;0.40;;
54637;SDS011;40534;54.874;23.798;2023-12-20T06:29:30;1.40;;;0.50;;
54637;SDS011;40534;54.874;23.798;2023-12-20T06:32:25;2.60;;;0.70;;
54637;SDS011;40534;54.874;23.798;2023-12-20T06:35:30;1.60;;;0.40;;
54637;SDS011;40534;54.874;23.798;2023-12-20T06:38:23;1.60;;;0.50;;
54637;SDS011;40534;54.874;23.798;2023-12-20T06:41:19;5.80;;;0.50;;
54637;SDS011;40534;54.874;23.798;2023-12-20T06:44:07;1.90;;;0.50;;
54637;SDS011;40534;54.874;23.798;2023-12-20T06:46:54;2.50;;;0.40;;
54637;SDS011;40534;54.874;23.798;2023-12-20T06:49:42;2.60;;;0.50;;
54637;SDS011;40534;54.874;23.798;2023-12-20T06:52:28;4.90;;;0.60;;
54637;SDS011;40534;54.874;23.798;2023-12-20T06:55:31;1.00;;;0.50;;
54637;SDS011;40534;54.874;23.798;2023-12-20T06:58:56;4.70;;;0.60;;
54637;SDS011;40534;54.874;23.798;2023-12-20T07:01:59;0.70;;;0.60;;
54637;SDS011;40534;54.874;23.798;2023-12-20T07:04:50;4.60;;;0.50;;
54637;SDS011;40534;54.874;23.798;2023-12-20T07:07:48;2.10;;;0.50;;
54637;SDS011;40534;54.874;23.798;2023-12-20T07:10:38;3.10;;;0.50;;
54637;SDS011;40534;54.874;23.798;2023-12-20T07:19:54;3.70;;;0.70;;
54637;SDS011;40534;54.874;23.798;2023-12-20T07:25:53;3.00;;;0.70;;
54637;SDS011;40534;54.874;23.798;2023-12-20T07:28:41;2.30;;;1.00;;
54637;SDS011;40534;54.874;23.798;2023-12-20T07:31:34;2.50;;;0.90;;
54637;SDS011;40534;54.874;23.798;2023-12-20T07:34:27;3.50;;;0.90;;
54637;SDS011;40534;54.874;23.798;2023-12-20T07:37:22;3.30;;;0.80;;
54637;SDS011;40534;54.874;23.798;2023-12-20T07:40:18;5.90;;;1.30;;
54637;SDS011;40534;54.874;23.798;2023-12-20T07:43:12;5.30;;;0.70;;
54637;SDS011;40534;54.874;23.798;2023-12-20T07:46:14;4.20;;;0.70;;
54637;SDS011;40534;54.874;23.798;2023-12-20T07:49:17;2.60;;;0.60;;
54637;SDS011;40534;54.874;23.798;2023-12-20T07:52:19;3.30;;;1.20;;
54637;SDS011;40534;54.874;23.798;2023-12-20T07:55:29;3.00;;;0.90;;
54637;SDS011;40534;54.874;23.798;2023-12-20T08:01:27;3.80;;;0.50;;
54637;SDS011;40534;54.874;23.798;2023-12-20T08:07:11;2.60;;;0.60;;
54637;SDS011;40534;54.874;23.798;2023-12-20T08:10:15;7.50;;;1.40;;
54637;SDS011;40534;54.874;23.798;2023-12-20T08:12:53;4.20;;;1.50;;
54637;SDS011;40534;54.874;23.798;2023-12-20T08:15:49;4.90;;;1.20;;
54637;SDS011;40534;54.874;23.798;2023-12-20T08:18:55;9.50;;;1.30;;
54637;SDS011;40534;54.874;23.798;2023-12-20T08:21:59;5.50;;;1.50;;
54637;SDS011;40534;54.874;23.798;2023-12-20T08:24:58;2.70;;;1.00;;
54637;SDS011;40534;54.874;23.798;2023-12-20T08:27:58;3.80;;;1.50;;
54637;SDS011;40534;54.874;23.798;2023-12-20T08:30:57;3.90;;;1.50;;
54637;SDS011;40534;54.874;23.798;2023-12-20T08:37:21;5.30;;;1.20;;
54637;SDS011;40534;54.874;23.798;2023-12-20T08:40:33;4.60;;;1.20;;
54637;SDS011;40534;54.874;23.798;2023-12-20T08:57:45;3.30;;;1.20;;
54637;SDS011;40534;54.874;23.798;2023-12-20T09:00:53;4.30;;;1.50;;
54637;SDS011;40534;54.874;23.798;2023-12-20T09:03:48;6.80;;;1.80;;
54637;SDS011;40534;54.874;23.798;2023-12-20T09:06:45;6.90;;;2.10;;
54637;SDS011;40534;54.874;23.798;2023-12-20T09:12:26;9.90;;;2.00;;
54637;SDS011;40534;54.874;23.798;2023-12-20T09:16:03;2.30;;;0.90;;
54637;SDS011;40534;54.874;23.798;2023-12-20T09:18:52;3.60;;;1.00;;
54637;SDS011;40534;54.874;23.798;2023-12-20T09:21:42;2.10;;;1.20;;
54637;SDS011;40534;54.874;23.798;2023-12-20T09:24:40;7.50;;;1.60;;
54637;SDS011;40534;54.874;23.798;2023-12-20T09:27:41;7.50;;;1.20;;
54637;SDS011;40534;54.874;23.798;2023-12-20T09:30:26;3.40;;;1.50;;
54637;SDS011;40534;54.874;23.798;2023-12-20T09:33:24;4.90;;;1.90;;
54637;SDS011;40534;54.874;23.798;2023-12-20T09:36:25;6.30;;;1.90;;
54637;SDS011;40534;54.874;23.798;2023-12-20T09:39:14;4.60;;;1.10;;
54637;SDS011;40534;54.874;23.798;2023-12-20T09:44:45;3.00;;;1.30;;
54637;SDS011;40534;54.874;23.798;2023-12-20T09:47:53;8.60;;;2.10;;
54637;SDS011;40534;54.874;23.798;2023-12-20T09:50:40;6.10;;;1.20;;
54637;SDS011;40534;54.874;23.798;2023-12-20T09:53:36;5.10;;;1.60;;
54637;SDS011;40534;54.874;23.798;2023-12-20T09:56:41;3.90;;;1.30;;
54637;SDS011;40534;54.874;23.798;2023-12-20T09:59:21;5.80;;;1.40;;
54637;SDS011;40534;54.874;23.798;2023-12-20T10:05:38;9.40;;;1.80;;
54637;SDS011;40534;54.874;23.798;2023-12-20T10:08:25;6.70;;;1.90;;
54637;SDS011;40534;54.874;23.798;2023-12-20T10:11:06;7.80;;;1.40;;
54637;SDS011;40534;54.874;23.798;2023-12-20T10:13:44;4.20;;;1.80;;
54637;SDS011;40534;54.874;23.798;2023-12-20T10:16:33;7.00;;;1.90;;
54637;SDS011;40534;54.874;23.798;2023-12-20T10:19:56;11.40;;;1.40;;
54637;SDS011;40534;54.874;23.798;2023-12-20T10:26:08;8.30;;;2.10;;
54637;SDS011;40534;54.874;23.798;2023-12-20T10:29:05;4.00;;;1.90;;
54637;SDS011;40534;54.874;23.798;2023-12-20T10:31:48;6.30;;;1.60;;
54637;SDS011;40534;54.874;23.798;2023-12-20T10:34:27;6.10;;;1.70;;
54637;SDS011;40534;54.874;23.798;2023-12-20T10:37:27;6.30;;;1.60;;
54637;SDS011;40534;54.874;23.798;2023-12-20T10:40:05;9.90;;;1.80;;
54637;SDS011;40534;54.874;23.798;2023-12-20T10:43:12;3.50;;;1.20;;
54637;SDS011;40534;54.874;23.798;2023-12-20T10:46:21;3.80;;;1.90;;
54637;SDS011;40534;54.874;23.798;2023-12-20T10:52:39;6.70;;;1.50;;
54637;SDS011;40534;54.874;23.798;2023-12-20T10:56:02;3.90;;;1.90;;
54637;SDS011;40534;54.874;23.798;2023-12-20T10:59:07;3.80;;;1.20;;
54637;SDS011;40534;54.874;23.798;2023-12-20T11:02:53;6.60;;;2.40;;
54637;SDS011;40534;54.874;23.798;2023-12-20T11:09:38;6.50;;;1.60;;
54637;SDS011;40534;54.874;23.798;2023-12-20T11:16:48;4.50;;;1.50;;
54637;SDS011;40534;54.874;23.798;2023-12-20T11:20:25;5.90;;;1.40;;
54637;SDS011;40534;54.874;23.798;2023-12-20T11:22:59;7.40;;;2.30;;
54637;SDS011;40534;54.874;23.798;2023-12-20T11:29:59;2.70;;;1.10;;
54637;SDS011;40534;54.874;23.798;2023-12-20T11:33:03;6.40;;;1.40;;
54637;SDS011;40534;54.874;23.798;2023-12-20T11:42:29;6.50;;;1.70;;
54637;SDS011;40534;54.874;23.798;2023-12-20T11:45:36;13.30;;;7.40;;
54637;SDS011;40534;54.874;23.798;2023-12-20T11:48:29;6.00;;;3.10;;
54637;SDS011;40534;54.874;23.798;2023-12-20T11:55:47;6.00;;;1.40;;
54637;SDS011;40534;54.874;23.798;2023-12-20T11:58:35;3.50;;;1.20;;
54637;SDS011;40534;54.874;23.798;2023-12-20T12:01:33;3.80;;;1.00;;
54637;SDS011;40534;54.874;23.798;2023-12-20T12:04:38;3.10;;;1.00;;
54637;SDS011;40534;54.874;23.798;2023-12-20T12:07:47;5.90;;;1.20;;
54637;SDS011;40534;54.874;23.798;2023-12-20T12:10:33;3.40;;;1.40;;
54637;SDS011;40534;54.874;23.798;2023-12-20T12:17:18;5.20;;;1.40;;
54637;SDS011;40534;54.874;23.798;2023-12-20T12:20:33;7.30;;;1.40;;
54637;SDS011;40534;54.874;23.798;2023-12-20T12:23:35;2.80;;;0.90;;
54637;SDS011;40534;54.874;23.798;2023-12-20T12:26:26;5.20;;;1.20;;
54637;SDS011;40534;54.874;23.798;2023-12-20T12:29:14;6.20;;;1.70;;
54637;SDS011;40534;54.874;23.798;2023-12-20T12:32:49;4.40;;;1.00;;
54637;SDS011;40534;54.874;23.798;2023-12-20T12:35:53;3.90;;;1.10;;
54637;SDS011;40534;54.874;23.798;2023-12-20T12:38:53;7.10;;;1.30;;
54637;SDS011;40534;54.874;23.798;2023-12-20T12:41:39;5.30;;;1.50;;
54637;SDS011;40534;54.874;23.798;2023-12-20T12:44:33;10.40;;;1.90;;
54637;SDS011;40534;54.874;23.798;2023-12-20T12:47:27;9.60;;;1.70;;
54637;SDS011;40534;54.874;23.798;2023-12-20T12:57:21;5.10;;;1.20;;
54637;SDS011;40534;54.874;23.798;2023-12-20T13:00:33;6.50;;;1.40;;
54637;SDS011;40534;54.874;23.798;2023-12-20T13:03:20;2.90;;;1.10;;
54637;SDS011;40534;54.874;23.798;2023-12-20T13:06:14;6.50;;;2.10;;
54637;SDS011;40534;54.874;23.798;2023-12-20T13:08:57;4.40;;;1.50;;
54637;SDS011;40534;54.874;23.798;2023-12-20T13:11:37;7.60;;;1.60;;
54637;SDS011;40534;54.874;23.798;2023-12-20T13:14:37;18.70;;;2.50;;
54637;SDS011;40534;54.874;23.798;2023-12-20T13:20:45;6.50;;;1.80;;
54637;SDS011;40534;54.874;23.798;2023-12-20T13:23:40;11.30;;;1.70;;
54637;SDS011;40534;54.874;23.798;2023-12-20T13:26:35;6.00;;;1.50;;
54637;SDS011;40534;54.874;23.798;2023-12-20T13:29:48;4.60;;;1.60;;
54637;SDS011;40534;54.874;23.798;2023-12-20T13:32:31;8.10;;;1.60;;
54637;SDS011;40534;54.874;23.798;2023-12-20T13:35:25;6.80;;;1.60;;
54637;SDS011;40534;54.874;23.798;2023-12-20T13:38:02;2.70;;;1.20;;
54637;SDS011;40534;54.874;23.798;2023-12-20T13:40:40;4.00;;;1.60;;
54637;SDS011;40534;54.874;23.798;2023-12-20T13:43:43;4.40;;;1.40;;
54637;SDS011;40534;54.874;23.798;2023-12-20T13:46:37;8.10;;;1.50;;
54637;SDS011;40534;54.874;23.798;2023-12-20T13:49:12;5.80;;;1.30;;
54637;SDS011;40534;54.874;23.798;2023-12-20T13:52:06;6.40;;;1.90;;
54637;SDS011;40534;54.874;23.798;2023-12-20T13:55:09;8.20;;;2.30;;
54637;SDS011;40534;54.874;23.798;2023-12-20T13:58:10;3.90;;;1.50;;
54637;SDS011;40534;54.874;23.798;2023-12-20T14:00:42;6.80;;;2.20;;
54637;SDS011;40534;54.874;23.798;2023-12-20T14:03:09;11.60;;;1.90;;
54637;SDS011;40534;54.874;23.798;2023-12-20T14:06:07;4.80;;;1.90;;
54637;SDS011;40534;54.874;23.798;2023-12-20T14:09:04;5.60;;;1.40;;
54637;SDS011;40534;54.874;23.798;2023-12-20T14:12:27;3.30;;;1.30;;
54637;SDS011;40534;54.874;23.798;2023-12-20T14:15:34;4.90;;;1.60;;
54637;SDS011;40534;54.874;23.798;2023-12-20T14:21:42;4.10;;;1.50;;
54637;SDS011;40534;54.874;23.798;2023-12-20T14:24:44;3.40;;;1.40;;
54637;SDS011;40534;54.874;23.798;2023-12-20T14:27:40;4.50;;;1.60;;
54637;SDS011;40534;54.874;23.798;2023-12-20T14:30:46;4.70;;;1.50;;
54637;SDS011;40534;54.874;23.798;2023-12-20T14:33:39;5.70;;;1.70;;
54637;SDS011;40534;54.874;23.798;2023-12-20T14:37:56;6.20;;;1.80;;
54637;SDS011;40534;54.874;23.798;2023-12-20T14:49:20;7.70;;;1.80;;
54637;SDS011;40534;54.874;23.798;2023-12-20T14:55:30;5.70;;;1.60;;
54637;SDS011;40534;54.874;23.798;2023-12-20T14:58:47;4.80;;;1.50;;
54637;SDS011;40534;54.874;23.798;2023-12-20T15:01:52;8.40;;;1.90;;
54637;SDS011;40534;54.874;23.798;2023-12-20T15:07:42;9.20;;;2.80;;
54637;SDS011;40534;54.874;23.798;2023-12-20T15:10:41;7.70;;;2.20;;
54637;SDS011;40534;54.874;23.798;2023-12-20T15:13:44;9.20;;;2.50;;
54637;SDS011;40534;54.874;23.798;2023-12-20T15:16:49;13.80;;;2.80;;
54637;SDS011;40534;54.874;23.798;2023-12-20T15:19:57;5.90;;;2.60;;
54637;SDS011;40534;54.874;23.798;2023-12-20T15:22:43;3.90;;;1.30;;
54637;SDS011;40534;54.874;23.798;2023-12-20T15:25:30;6.40;;;2.80;;
54637;SDS011;40534;54.874;23.798;2023-12-20T15:28:36;4.90;;;2.70;;
54637;SDS011;40534;54.874;23.798;2023-12-20T15:34:28;5.30;;;2.20;;
54637;SDS011;40534;54.874;23.798;2023-12-20T15:38:02;8.60;;;2.50;;
54637;SDS011;40534;54.874;23.798;2023-12-20T15:40:58;4.70;;;2.30;;
54637;SDS011;40534;54.874;23.798;2023-12-20T15:43:59;7.40;;;2.50;;
54637;SDS011;40534;54.874;23.798;2023-12-20T15:47:06;4.10;;;2.10;;
54637;SDS011;40534;54.874;23.798;2023-12-20T15:49:59;4.60;;;1.90;;
54637;SDS011;40534;54.874;23.798;2023-12-20T15:52:54;11.10;;;3.90;;
54637;SDS011;40534;54.874;23.798;2023-12-20T15:55:45;10.50;;;3.00;;
54637;SDS011;40534;54.874;23.798;2023-12-20T15:58:49;5.50;;;3.10;;
54637;SDS011;40534;54.874;23.798;2023-12-20T16:05:07;9.10;;;3.20;;
54637;SDS011;40534;54.874;23.798;2023-12-20T16:11:00;5.90;;;2.20;;
54637;SDS011;40534;54.874;23.798;2023-12-20T16:14:04;5.40;;;2.70;;
54637;SDS011;40534;54.874;23.798;2023-12-20T16:16:59;5.50;;;2.80;;
54637;SDS011;40534;54.874;23.798;2023-12-20T16:23:08;4.40;;;2.40;;
54637;SDS011;40534;54.874;23.798;2023-12-20T16:26:00;6.10;;;2.50;;
54637;SDS011;40534;54.874;23.798;2023-12-20T16:28:48;7.60;;;2.60;;
54637;SDS011;40534;54.874;23.798;2023-12-20T16:31:31;9.70;;;2.70;;
54637;SDS011;40534;54.874;23.798;2023-12-20T16:34:18;9.10;;;3.00;;
54637;SDS011;40534;54.874;23.798;2023-12-20T16:37:14;4.40;;;2.80;;
54637;SDS011;40534;54.874;23.798;2023-12-20T16:40:16;15.10;;;3.20;;
54637;SDS011;40534;54.874;23.798;2023-12-20T16:47:29;7.20;;;1.90;;
54637;SDS011;40534;54.874;23.798;2023-12-20T16:50:50;7.50;;;2.70;;
54637;SDS011;40534;54.874;23.798;2023-12-20T16:54:06;11.20;;;3.20;;
54637;SDS011;40534;54.874;23.798;2023-12-20T16:57:02;4.70;;;2.50;;
54637;SDS011;40534;54.874;23.798;2023-12-20T17:00:14;7.00;;;2.50;;
54637;SDS011;40534;54.874;23.798;2023-12-20T17:04:06;9.30;;;2.50;;
54637;SDS011;40534;54.874;23.798;2023-12-20T17:11:32;16.60;;;4.40;;
54637;SDS011;40534;54.874;23.798;2023-12-20T17:14:18;7.90;;;3.10;;
54637;SDS011;40534;54.874;23.798;2023-12-20T17:17:33;7.60;;;3.20;;
54637;SDS011;40534;54.874;23.798;2023-12-20T17:20:08;5.00;;;2.60;;
54637;SDS011;40534;54.874;23.798;2023-12-20T17:23:15;7.60;;;2.60;;
54637;SDS011;40534;54.874;23.798;2023-12-20T17:26:00;6.60;;;2.70;;
54637;SDS011;40534;54.874;23.798;2023-12-20T17:28:50;5.00;;;3.10;;
54637;SDS011;40534;54.874;23.798;2023-12-20T17:31:33;6.90;;;2.80;;
54637;SDS011;40534;54.874;23.798;2023-12-20T17:34:10;6.00;;;2.70;;
54637;SDS011;40534;54.874;23.798;2023-12-20T17:41:27;7.00;;;2.70;;
54637;SDS011;40534;54.874;23.798;2023-12-20T17:49:38;7.10;;;3.40;;
54637;SDS011;40534;54.874;23.798;2023-12-20T17:53:06;10.40;;;3.40;;
54637;SDS011;40534;54.874;23.798;2023-12-20T18:00:43;9.50;;;3.50;;
54637;SDS011;40534;54.874;23.798;2023-12-20T18:10:41;6.80;;;3.10;;
54637;SDS011;40534;54.874;23.798;2023-12-20T18:14:13;9.50;;;3.70;;
54637;SDS011;40534;54.874;23.798;2023-12-20T18:17:06;9.10;;;3.60;;
54637;SDS011;40534;54.874;23.798;2023-12-20T18:20:20;7.70;;;3.10;;
54637;SDS011;40534;54.874;23.798;2023-12-20T18:23:36;4.30;;;3.00;;
54637;SDS011;40534;54.874;23.798;2023-12-20T18:30:05;7.60;;;3.20;;
54637;SDS011;40534;54.874;23.798;2023-12-20T18:33:11;7.70;;;3.40;;
54637;SDS011;40534;54.874;23.798;2023-12-20T18:36:18;9.20;;;4.20;;
54637;SDS011;40534;54.874;23.798;2023-12-20T18:43:06;5.60;;;3.60;;
54637;SDS011;40534;54.874;23.798;2023-12-20T18:49:46;6.50;;;3.70;;
54637;SDS011;40534;54.874;23.798;2023-12-20T19:00:42;7.40;;;3.70;;
54637;SDS011;40534;54.874;23.798;2023-12-20T19:13:45;5.60;;;3.50;;
54637;SDS011;40534;54.874;23.798;2023-12-20T19:16:31;7.70;;;4.50;;
54637;SDS011;40534;54.874;23.798;2023-12-20T19:19:42;6.30;;;3.50;;
54637;SDS011;40534;54.874;23.798;2023-12-20T19:26:23;5.90;;;3.90;;
54637;SDS011;40534;54.874;23.798;2023-12-20T19:29:25;4.10;;;3.50;;
54637;SDS011;40534;54.874;23.798;2023-12-20T19:32:09;10.10;;;4.40;;
54637;SDS011;40534;54.874;23.798;2023-12-20T19:35:31;6.30;;;3.90;;
54637;SDS011;40534;54.874;23.798;2023-12-20T19:41:10;8.60;;;4.10;;
54637;SDS011;40534;54.874;23.798;2023-12-20T19:44:00;8.10;;;3.80;;
54637;SDS011;40534;54.874;23.798;2023-12-20T19:46:54;4.90;;;3.50;;
54637;SDS011;40534;54.874;23.798;2023-12-20T19:49:47;6.70;;;4.30;;
54637;SDS011;40534;54.874;23.798;2023-12-20T19:52:53;5.30;;;4.00;;
54637;SDS011;40534;54.874;23.798;2023-12-20T19:55:24;7.10;;;4.30;;
54637;SDS011;40534;54.874;23.798;2023-12-20T19:58:13;5.40;;;3.80;;
54637;SDS011;40534;54.874;23.798;2023-12-20T20:01:13;7.30;;;4.10;;
54637;SDS011;40534;54.874;23.798;2023-12-20T20:04:11;7.40;;;3.80;;
54637;SDS011;40534;54.874;23.798;2023-12-20T20:10:22;5.80;;;3.90;;
54637;SDS011;40534;54.874;23.798;2023-12-20T20:13:22;6.20;;;4.10;;
54637;SDS011;40534;54.874;23.798;2023-12-20T20:16:44;3.80;;;2.90;;
54637;SDS011;40534;54.874;23.798;2023-12-20T20:20:01;6.00;;;3.90;;
54637;SDS011;40534;54.874;23.798;2023-12-20T20:23:24;4.60;;;3.60;;
54637;SDS011;40534;54.874;23.798;2023-12-20T20:28:55;4.90;;;3.70;;
54637;SDS011;40534;54.874;23.798;2023-12-20T20:32:00;6.60;;;3.70;;
54637;SDS011;40534;54.874;23.798;2023-12-20T20:34:49;6.90;;;4.30;;
54637;SDS011;40534;54.874;23.798;2023-12-20T20:37:39;4.70;;;3.90;;
54637;SDS011;40534;54.874;23.798;2023-12-20T20:40:28;6.30;;;3.00;;
54637;SDS011;40534;54.874;23.798;2023-12-20T20:43:22;5.00;;;3.30;;
54637;SDS011;40534;54.874;23.798;2023-12-20T20:48:59;4.50;;;3.20;;
54637;SDS011;40534;54.874;23.798;2023-12-20T20:51:40;4.80;;;3.40;;
54637;SDS011;40534;54.874;23.798;2023-12-20T20:54:37;7.70;;;3.50;;
54637;SDS011;40534;54.874;23.798;2023-12-20T20:57:29;6.80;;;3.90;;
54637;SDS011;40534;54.874;23.798;2023-12-20T21:00:30;7.60;;;3.80;;
54637;SDS011;40534;54.874;23.798;2023-12-20T21:03:24;5.10;;;3.60;;
54637;SDS011;40534;54.874;23.798;2023-12-20T21:06:21;6.10;;;3.90;;
54637;SDS011;40534;54.874;23.798;2023-12-20T21:09:09;6.60;;;3.80;;
54637;SDS011;40534;54.874;23.798;2023-12-20T21:12:16;4.80;;;3.60;;
54637;SDS011;40534;54.874;23.798;2023-12-20T21:15:25;7.30;;;3.90;;
54637;SDS011;40534;54.874;23.798;2023-12-20T21:18:12;5.90;;;3.80;;
54637;SDS011;40534;54.874;23.798;2023-12-20T21:21:15;6.00;;;3.50;;
54637;SDS011;40534;54.874;23.798;2023-12-20T21:27:50;5.20;;;3.60;;
54637;SDS011;40534;54.874;23.798;2023-12-20T21:30:38;4.40;;;3.00;;
54637;SDS011;40534;54.874;23.798;2023-12-20T21:33:31;5.40;;;3.90;;
54637;SDS011;40534;54.874;23.798;2023-12-20T21:36:24;5.30;;;4.10;;
54637;SDS011;40534;54.874;23.798;2023-12-20T21:39:18;5.40;;;3.60;;
54637;SDS011;40534;54.874;23.798;2023-12-20T21:42:14;5.20;;;3.50;;
54637;SDS011;40534;54.874;23.798;2023-12-20T21:48:15;4.30;;;3.10;;
54637;SDS011;40534;54.874;23.798;2023-12-20T21:55:23;4.90;;;2.90;;
54637;SDS011;40534;54.874;23.798;2023-12-20T22:05:38;5.00;;;3.60;;
54637;SDS011;40534;54.874;23.798;2023-12-20T22:08:24;4.30;;;3.20;;